createdAt,value
2022-12-01T00:00:08.450Z,99.10
2022-12-01T00:02:43.755Z,99.97
2022-12-01T00:05:17.556Z,99.28
2022-12-01T00:07:51.398Z,98.05
2022-12-01T00:10:26.753Z,105.82
2022-12-01T00:13:03.007Z,100.90
2022-12-01T00:15:38.193Z,101.13
2022-12-01T00:18:13.507Z,100.70
2022-12-01T00:20:50.892Z,98.40
2022-12-01T00:23:24.600Z,96.90
2022-12-01T00:26:03.926Z,98.20
2022-12-01T00:28:37.629Z,93.03
2022-12-01T00:31:12.406Z,100.63
2022-12-01T00:33:47.673Z,103.13
2022-12-01T00:36:21.128Z,101.20
2022-12-01T00:38:56.546Z,100.28
2022-12-01T00:41:30.197Z,100.10
2022-12-01T00:44:03.909Z,98.75
2022-12-01T00:46:37.478Z,104.35
2022-12-01T00:49:13.762Z,97.13
2022-12-01T00:51:47.188Z,101.25
2022-12-01T00:54:20.879Z,97.72
2022-12-01T00:56:54.467Z,103.10
2022-12-01T00:59:28.171Z,99.70
2022-12-01T01:02:01.878Z,97.95
2022-12-01T01:04:37.754Z,101.32
2022-12-01T01:07:11.229Z,98.05
2022-12-01T01:09:44.962Z,98.78
2022-12-01T01:12:18.492Z,95.13
2022-12-01T01:14:52.188Z,100.15
2022-12-01T01:17:25.781Z,99.85
2022-12-01T01:20:01.038Z,105.57
2022-12-01T01:22:36.097Z,108.68
2022-12-01T01:25:10.176Z,98.63
2022-12-01T01:27:43.803Z,113.50
2022-12-01T01:30:18.189Z,106.25
2022-12-01T01:32:51.672Z,100.07
2022-12-01T01:35:26.763Z,106.85
2022-12-01T01:38:00.279Z,101.53
2022-12-01T01:40:34.153Z,100.25
2022-12-01T01:43:16.035Z,109.18
2022-12-01T01:45:49.770Z,101.28
2022-12-01T01:48:23.392Z,105.47
2022-12-01T01:50:58.565Z,103.50
2022-12-01T01:53:33.287Z,109.40
2022-12-01T01:56:09.128Z,106.57
2022-12-01T01:58:43.095Z,106.47
2022-12-01T02:01:16.864Z,103.80
2022-12-01T02:03:53.481Z,103.10
2022-12-01T02:06:28.792Z,102.63
2022-12-01T02:09:02.467Z,111.10
2022-12-01T02:12:04.386Z,103.70
2022-12-01T02:14:56.562Z,103.30
2022-12-01T02:17:41.572Z,115.50
2022-12-01T02:20:43.813Z,104.80
2022-12-01T02:23:47.477Z,110.10
2022-12-01T02:26:40.341Z,111.25
2022-12-01T02:29:42.896Z,104.68
2022-12-01T02:32:28.659Z,112.28
2022-12-01T02:35:07.918Z,104.07
2022-12-01T02:40:24.696Z,104.78
2022-12-01T02:43:05.156Z,112.38
2022-12-01T02:45:44.761Z,109.03
2022-12-01T02:48:27.395Z,111.93
2022-12-01T02:51:08.824Z,106.90
2022-12-01T02:53:42.536Z,104.20
2022-12-01T02:56:16.954Z,117.28
2022-12-01T02:58:51.078Z,112.63
2022-12-01T03:01:37.901Z,119.82
2022-12-01T03:04:30.494Z,111.57
2022-12-01T03:07:13.168Z,118.85
2022-12-01T03:09:56.032Z,110.03
2022-12-01T03:12:36.596Z,115.60
2022-12-01T03:15:19.662Z,119.40
2022-12-01T03:18:03.162Z,108.65
2022-12-01T03:20:43.627Z,114.53
2022-12-01T03:23:22.894Z,120.93
2022-12-01T03:28:35.791Z,121.72
2022-12-01T03:31:14.458Z,115.97
2022-12-01T03:36:30.793Z,122.40
2022-12-01T03:39:08.256Z,118.32
2022-12-01T03:41:46.565Z,122.10
2022-12-01T03:44:23.752Z,125.07
2022-12-01T03:47:02.060Z,125.00
2022-12-01T03:49:37.315Z,122.50
2022-12-01T03:52:21.228Z,127.30
2022-12-01T03:55:06.188Z,121.28
2022-12-01T03:57:45.911Z,119.45
2022-12-01T04:00:20.903Z,125.45
2022-12-01T04:02:56.760Z,124.85
2022-12-01T04:05:32.314Z,129.02
2022-12-01T04:08:07.398Z,122.68
2022-12-01T04:10:41.118Z,124.57
2022-12-01T04:13:22.514Z,124.53
2022-12-01T04:15:56.512Z,114.35
2022-12-01T04:18:30.211Z,113.22
2022-12-01T04:21:04.035Z,118.50
2022-12-01T04:23:56.103Z,127.22
2022-12-01T04:26:30.726Z,116.50
2022-12-01T04:29:07.556Z,127.03
2022-12-01T04:31:41.768Z,121.28
2022-12-01T04:34:15.338Z,128.50
2022-12-01T04:36:49.156Z,126.35
2022-12-01T04:39:24.099Z,125.32
2022-12-01T04:41:57.838Z,118.18
2022-12-01T04:44:35.038Z,126.95
2022-12-01T04:47:09.129Z,115.30
2022-12-01T04:49:42.710Z,115.38
2022-12-01T04:52:16.529Z,119.55
2022-12-01T04:54:51.447Z,119.32
2022-12-01T04:57:25.175Z,120.10
2022-12-01T04:59:58.771Z,127.25
2022-12-01T05:02:32.770Z,127.88
2022-12-01T05:05:07.235Z,122.03
2022-12-01T05:07:41.136Z,122.25
2022-12-01T05:10:18.992Z,124.43
2022-12-01T05:12:52.846Z,117.70
2022-12-01T05:15:26.407Z,113.40
2022-12-01T05:18:00.680Z,119.80
2022-12-01T05:20:52.003Z,121.38
2022-12-01T05:23:26.274Z,125.30
2022-12-01T05:26:02.277Z,120.03
2022-12-01T05:28:36.438Z,126.45
2022-12-01T05:31:09.997Z,125.72
2022-12-01T05:33:43.786Z,119.40
2022-12-01T05:36:17.241Z,120.07
2022-12-01T05:38:51.025Z,128.77
2022-12-01T05:41:25.843Z,126.07
2022-12-01T05:43:59.700Z,113.88
2022-12-01T05:46:33.354Z,113.28
2022-12-01T05:49:07.383Z,113.85
2022-12-01T05:51:40.953Z,121.05
2022-12-01T05:54:16.214Z,117.82
2022-12-01T05:56:51.195Z,117.85
2022-12-01T05:59:25.114Z,116.63
2022-12-01T06:01:58.588Z,116.90
2022-12-01T06:04:32.383Z,117.70
2022-12-01T06:07:06.223Z,115.50
2022-12-01T06:09:40.101Z,116.32
2022-12-01T06:12:14.992Z,115.13
2022-12-01T06:14:48.665Z,117.40
2022-12-01T06:17:22.155Z,126.30
2022-12-01T06:19:55.875Z,124.90
2022-12-01T06:22:29.687Z,121.82
2022-12-01T06:25:03.705Z,122.07
2022-12-01T06:27:38.632Z,120.70
2022-12-01T06:30:12.806Z,115.88
2022-12-01T06:32:46.516Z,119.93
2022-12-01T06:35:20.723Z,119.97
2022-12-01T06:37:54.902Z,123.18
2022-12-01T06:40:29.534Z,126.15
2022-12-01T06:43:04.392Z,122.85
2022-12-01T06:45:38.252Z,125.78
2022-12-01T06:48:12.675Z,123.97
2022-12-01T06:50:46.485Z,119.90
2022-12-01T06:56:17.705Z,122.32
2022-12-01T06:58:53.468Z,125.90
2022-12-01T07:01:27.318Z,118.95
2022-12-01T07:04:01.157Z,128.43
2022-12-01T07:06:34.910Z,123.95
2022-12-01T07:09:08.577Z,120.72
2022-12-01T07:11:42.145Z,118.78
2022-12-01T07:14:23.274Z,131.68
2022-12-01T07:16:56.730Z,122.80
2022-12-01T07:19:30.472Z,141.05
2022-12-01T07:22:04.171Z,125.97
2022-12-01T07:24:37.996Z,123.05
2022-12-01T07:27:11.448Z,119.45
2022-12-01T07:29:46.986Z,123.28
2022-12-01T07:32:20.636Z,123.95
2022-12-01T07:34:54.339Z,125.47
2022-12-01T07:37:27.979Z,116.97
2022-12-01T07:40:01.870Z,120.20
2022-12-01T07:42:35.434Z,122.65
2022-12-01T07:45:10.984Z,116.70
2022-12-01T07:47:45.377Z,117.13
2022-12-01T07:50:19.149Z,118.05
2022-12-01T07:52:52.852Z,119.32
2022-12-01T07:55:26.647Z,122.88
2022-12-01T07:58:00.618Z,119.20
2022-12-01T08:00:35.811Z,112.03
2022-12-01T08:03:09.392Z,113.75
2022-12-01T08:05:43.254Z,116.80
2022-12-01T08:08:16.924Z,113.07
2022-12-01T08:10:50.977Z,105.28
2022-12-01T08:13:24.658Z,115.13
2022-12-01T08:15:59.808Z,107.88
2022-12-01T08:18:35.562Z,106.60
2022-12-01T08:21:11.863Z,109.35
2022-12-01T08:23:45.581Z,109.30
2022-12-01T08:26:20.386Z,107.70
2022-12-01T08:28:53.991Z,114.28
2022-12-01T08:31:31.554Z,101.70
2022-12-01T08:34:06.188Z,110.90
2022-12-01T08:36:41.365Z,116.53
2022-12-01T08:39:16.019Z,106.63
2022-12-01T08:41:52.841Z,98.85
2022-12-01T08:44:27.713Z,106.88
2022-12-01T08:47:06.487Z,100.32
2022-12-01T08:49:41.328Z,98.68
2022-12-01T08:52:15.974Z,102.43
2022-12-01T08:54:51.025Z,102.60
2022-12-01T08:57:25.194Z,101.80
2022-12-01T08:59:58.847Z,102.25
2022-12-01T09:02:34.213Z,89.82
2022-12-01T09:05:08.637Z,97.28
2022-12-01T09:07:42.942Z,97.28
2022-12-01T09:10:16.824Z,96.88
2022-12-01T09:12:50.468Z,96.35
2022-12-01T09:15:24.072Z,105.28
2022-12-01T09:17:59.084Z,91.72
2022-12-01T09:20:32.670Z,104.18
2022-12-01T09:23:06.371Z,104.63
2022-12-01T09:25:39.899Z,102.60
2022-12-01T09:28:13.701Z,99.60
2022-12-01T09:30:48.314Z,100.50
2022-12-01T09:33:23.616Z,98.53
2022-12-01T09:35:59.334Z,109.93
2022-12-01T09:38:34.360Z,96.85
2022-12-01T09:41:12.945Z,97.25
2022-12-01T09:46:26.461Z,101.32
2022-12-01T09:51:37.523Z,101.28
2022-12-01T09:54:14.489Z,107.90
2022-12-01T09:56:52.862Z,94.82
2022-12-01T09:59:31.944Z,109.22
2022-12-01T10:02:24.057Z,103.25
2022-12-01T10:05:02.847Z,100.57
2022-12-01T10:07:41.070Z,97.82
2022-12-01T10:10:19.398Z,101.57
2022-12-01T10:12:53.722Z,101.18
2022-12-01T10:15:40.480Z,102.35
2022-12-01T10:18:24.355Z,113.18
2022-12-01T10:21:07.854Z,99.60
2022-12-01T10:24:08.271Z,102.90
2022-12-01T10:26:52.345Z,97.22
2022-12-01T10:29:32.925Z,111.25
2022-12-01T10:32:17.571Z,109.53
2022-12-01T10:34:51.448Z,92.20
2022-12-01T10:37:29.583Z,95.35
2022-12-01T10:40:03.603Z,95.72
2022-12-01T10:42:42.178Z,94.10
2022-12-01T10:45:21.242Z,89.63
2022-12-01T10:48:16.520Z,83.35
2022-12-01T10:50:52.762Z,75.18
2022-12-01T10:53:30.630Z,72.13
2022-12-01T10:56:07.884Z,73.32
2022-12-01T10:58:46.319Z,67.82
2022-12-01T11:01:23.125Z,67.47
2022-12-01T11:04:01.640Z,65.15
2022-12-01T11:06:36.253Z,70.38
2022-12-01T11:09:25.950Z,71.22
2022-12-01T11:12:02.653Z,66.65
2022-12-01T11:14:46.034Z,70.72
2022-12-01T11:17:33.070Z,76.30
2022-12-01T11:20:30.846Z,73.90
2022-12-01T11:23:25.499Z,90.55
2022-12-01T11:26:06.196Z,83.40
2022-12-01T11:28:44.499Z,81.65
2022-12-01T11:31:20.165Z,87.18
2022-12-01T11:33:57.198Z,87.18
2022-12-01T11:36:39.879Z,90.80
2022-12-01T11:39:24.508Z,84.95
2022-12-01T11:42:02.611Z,87.15
2022-12-01T11:44:52.184Z,90.57
2022-12-01T11:47:28.153Z,89.47
2022-12-01T11:50:04.723Z,90.25
2022-12-01T11:52:47.859Z,81.47
2022-12-01T11:55:23.922Z,84.68
2022-12-01T11:58:02.782Z,70.97
2022-12-01T12:00:44.820Z,71.55
2022-12-01T12:03:22.093Z,73.20
2022-12-01T12:09:45.792Z,69.88
2022-12-01T12:12:31.802Z,68.35
2022-12-01T12:15:19.734Z,76.35
2022-12-01T12:18:18.198Z,80.97
2022-12-01T12:21:06.764Z,75.10
2022-12-01T12:23:58.666Z,76.70
2022-12-01T12:26:40.155Z,78.95
2022-12-01T12:29:29.154Z,73.88
2022-12-01T12:32:20.157Z,82.03
2022-12-01T12:35:01.574Z,77.60
2022-12-01T12:37:44.197Z,76.22
2022-12-01T12:40:32.626Z,71.70
2022-12-01T12:43:22.862Z,73.50
2022-12-01T12:46:05.144Z,75.38
2022-12-01T12:51:57.379Z,81.78
2022-12-01T12:54:35.215Z,79.63
2022-12-01T12:57:20.755Z,82.63
2022-12-01T13:00:00.237Z,77.65
2022-12-01T13:02:39.137Z,79.43
2022-12-01T13:05:20.899Z,84.35
2022-12-01T13:08:00.656Z,83.40
2022-12-01T13:10:40.546Z,72.22
2022-12-01T13:13:22.720Z,70.43
2022-12-01T13:15:59.592Z,70.72
2022-12-01T13:18:38.873Z,67.15
2022-12-01T13:21:18.466Z,56.83
2022-12-01T13:23:53.354Z,70.47
2022-12-01T13:26:27.390Z,60.42
2022-12-01T13:29:01.426Z,69.65
2022-12-01T13:31:44.012Z,70.05
2022-12-01T13:34:25.593Z,66.10
2022-12-01T13:37:00.954Z,65.07
2022-12-01T13:39:36.138Z,55.83
2022-12-01T13:42:22.415Z,60.33
2022-12-01T13:44:58.842Z,58.65
2022-12-01T13:47:40.163Z,56.38
2022-12-01T13:51:02.402Z,53.42
2022-12-01T13:53:38.477Z,57.97
2022-12-01T13:56:39.411Z,52.58
2022-12-01T13:59:40.704Z,58.83
2022-12-01T14:02:19.714Z,68.50
2022-12-01T14:04:54.744Z,60.60
2022-12-01T14:07:44.657Z,67.30
2022-12-01T14:10:32.235Z,63.65
2022-12-01T14:13:07.575Z,72.82
2022-12-01T14:15:45.165Z,59.17
2022-12-01T14:18:33.119Z,57.47
2022-12-01T14:21:10.409Z,57.85
2022-12-01T14:24:04.195Z,60.38
2022-12-01T14:26:50.005Z,61.72
2022-12-01T14:29:35.144Z,53.80
2022-12-01T14:32:29.384Z,60.75
2022-12-01T14:35:11.400Z,57.25
2022-12-01T14:37:49.966Z,59.08
2022-12-01T14:40:29.669Z,57.60
2022-12-01T14:43:23.552Z,48.67
2022-12-01T14:46:07.102Z,56.90
2022-12-01T14:48:44.208Z,56.40
2022-12-01T14:51:27.592Z,53.80
2022-12-01T14:54:05.322Z,56.40
2022-12-01T14:56:39.988Z,54.00
2022-12-01T14:59:22.034Z,57.83
2022-12-01T15:01:58.449Z,46.67
2022-12-01T15:04:33.730Z,49.35
2022-12-01T15:07:08.385Z,50.83
2022-12-01T15:10:00.761Z,54.05
2022-12-01T15:12:34.720Z,55.45
2022-12-01T15:15:23.422Z,57.22
2022-12-01T15:18:01.600Z,52.45
2022-12-01T15:20:38.089Z,47.50
2022-12-01T15:23:15.616Z,48.30
2022-12-01T15:25:50.085Z,58.75
2022-12-01T15:28:31.307Z,53.88
2022-12-01T15:31:14.316Z,50.42
2022-12-01T15:33:52.165Z,45.22
2022-12-01T15:36:26.071Z,47.57
2022-12-01T15:39:06.774Z,51.00
2022-12-01T15:41:42.516Z,52.80
2022-12-01T15:44:27.390Z,54.42
2022-12-01T15:47:33.217Z,49.88
2022-12-01T15:50:07.699Z,48.75
2022-12-01T15:52:44.792Z,50.03
2022-12-01T15:55:25.835Z,44.70
2022-12-01T15:58:00.767Z,46.65
2022-12-01T16:00:34.782Z,45.40
2022-12-01T16:03:15.657Z,48.50
2022-12-01T16:05:49.500Z,44.25
2022-12-01T16:08:26.998Z,44.90
2022-12-01T16:11:12.376Z,44.55
2022-12-01T16:13:48.787Z,49.30
2022-12-01T16:16:28.751Z,53.95
2022-12-01T16:19:06.651Z,56.70
2022-12-01T16:21:47.636Z,56.53
2022-12-01T16:24:23.836Z,59.70
2022-12-01T16:27:01.462Z,72.70
2022-12-01T16:29:44.037Z,69.95
2022-12-01T16:32:21.534Z,66.65
2022-12-01T16:34:57.131Z,75.68
2022-12-01T16:37:31.526Z,73.43
2022-12-01T16:40:06.782Z,82.07
2022-12-01T16:42:40.883Z,77.00
2022-12-01T16:45:15.560Z,86.97
2022-12-01T16:47:50.369Z,82.32
2022-12-01T16:50:25.630Z,89.57
2022-12-01T16:52:59.246Z,99.65
2022-12-01T16:55:38.967Z,106.78
2022-12-01T16:58:12.496Z,104.18
2022-12-01T17:00:52.322Z,100.07
2022-12-01T17:03:29.006Z,97.35
2022-12-01T17:06:05.697Z,94.63
2022-12-01T17:08:39.202Z,101.72
2022-12-01T17:11:13.528Z,98.97
2022-12-01T17:13:47.494Z,109.88
2022-12-01T17:16:22.311Z,110.20
2022-12-01T17:18:55.906Z,95.85
2022-12-01T17:21:31.524Z,89.25
2022-12-01T17:24:05.373Z,85.32
2022-12-01T17:26:39.172Z,105.82
2022-12-01T17:29:12.734Z,94.95
2022-12-01T17:31:46.512Z,92.15
2022-12-01T17:34:20.192Z,98.03
2022-12-01T17:36:55.390Z,84.68
2022-12-01T17:39:28.964Z,96.07
2022-12-01T17:42:03.161Z,85.80
2022-12-01T17:44:36.849Z,102.97
2022-12-01T17:47:10.664Z,100.70
2022-12-01T17:49:44.265Z,143.85
2022-12-01T17:52:22.198Z,93.68
2022-12-01T17:54:59.121Z,84.22
2022-12-01T17:57:33.104Z,150.55
2022-12-01T18:00:08.689Z,83.22
2022-12-01T18:02:42.480Z,103.70
2022-12-01T18:05:16.165Z,88.78
2022-12-01T18:07:51.491Z,80.20
2022-12-01T18:10:25.161Z,76.82
2022-12-01T18:12:59.046Z,73.57
2022-12-01T18:15:34.818Z,79.40
2022-12-01T18:18:08.731Z,85.07
2022-12-01T18:20:42.960Z,88.30
2022-12-01T18:23:18.248Z,86.22
2022-12-01T18:25:51.800Z,76.88
2022-12-01T18:28:25.652Z,72.82
2022-12-01T18:31:04.589Z,79.85
2022-12-01T18:33:41.199Z,73.75
2022-12-01T18:36:17.325Z,80.72
2022-12-01T18:38:54.474Z,79.75
2022-12-01T18:41:28.836Z,75.75
2022-12-01T18:44:03.063Z,71.60
2022-12-01T18:46:37.067Z,70.15
2022-12-01T18:49:11.503Z,72.13
2022-12-01T18:51:45.126Z,69.97
2022-12-01T18:54:20.587Z,69.03
2022-12-01T18:56:55.067Z,72.22
2022-12-01T18:59:28.923Z,74.80
2022-12-01T19:02:02.730Z,71.28
2022-12-01T19:04:36.525Z,70.05
2022-12-01T19:07:09.998Z,72.47
2022-12-01T19:09:45.034Z,66.95
2022-12-01T19:12:18.566Z,63.00
2022-12-01T19:14:54.299Z,65.25
2022-12-01T19:17:27.922Z,68.18
2022-12-01T19:20:01.735Z,72.95
2022-12-01T19:22:35.626Z,57.63
2022-12-01T19:25:11.673Z,66.75
2022-12-01T19:27:45.314Z,70.07
2022-12-01T19:30:19.280Z,64.35
2022-12-01T19:32:53.069Z,66.82
2022-12-01T19:35:26.811Z,71.95
2022-12-01T19:38:00.392Z,68.82
2022-12-01T19:40:38.429Z,71.15
2022-12-01T19:43:11.976Z,64.80
2022-12-01T19:45:45.791Z,76.88
2022-12-01T19:48:19.379Z,67.30
2022-12-01T19:50:53.237Z,61.88
2022-12-01T19:53:31.880Z,68.10
2022-12-01T19:56:08.998Z,68.10
2022-12-01T19:58:42.742Z,74.85
2022-12-01T20:01:18.309Z,65.78
2022-12-01T20:03:53.821Z,69.50
2022-12-01T20:06:29.564Z,70.55
2022-12-01T20:09:05.010Z,70.78
2022-12-01T20:11:40.248Z,68.57
2022-12-01T20:14:13.922Z,71.32
2022-12-01T20:16:47.759Z,76.43
2022-12-01T20:19:21.371Z,76.47
2022-12-01T20:21:55.098Z,79.32
2022-12-01T20:24:28.711Z,79.70
2022-12-01T20:27:04.014Z,81.13
2022-12-01T20:29:37.875Z,79.78
2022-12-01T20:32:11.804Z,81.28
2022-12-01T20:34:45.286Z,76.00
2022-12-01T20:37:19.244Z,80.47
2022-12-01T20:39:52.829Z,91.30
2022-12-01T20:42:28.158Z,82.10
2022-12-01T20:45:01.878Z,84.65
2022-12-01T20:47:36.631Z,85.10
2022-12-01T20:50:11.373Z,90.22
2022-12-01T20:52:45.429Z,92.57
2022-12-01T20:55:19.287Z,90.78
2022-12-01T20:57:54.633Z,78.20
2022-12-01T21:00:28.225Z,83.00
2022-12-01T21:03:02.221Z,80.15
2022-12-01T21:05:36.076Z,70.05
2022-12-01T21:08:12.270Z,74.15
2022-12-01T21:10:47.081Z,74.68
2022-12-01T21:13:41.524Z,72.03
2022-12-01T21:16:23.223Z,78.75
2022-12-01T21:19:01.125Z,73.75
2022-12-01T21:21:39.184Z,72.53
2022-12-01T21:24:15.609Z,76.78
2022-12-01T21:26:51.524Z,72.70
2022-12-01T21:29:28.791Z,76.90
2022-12-01T21:32:11.175Z,75.38
2022-12-01T21:34:46.534Z,71.50
2022-12-01T21:37:22.920Z,82.28
2022-12-01T21:39:58.280Z,74.82
2022-12-01T21:42:32.855Z,76.28
2022-12-01T21:45:18.749Z,74.18
2022-12-01T21:47:52.517Z,79.22
2022-12-01T21:50:27.253Z,85.40
2022-12-01T21:53:01.162Z,81.93
2022-12-01T21:55:36.921Z,88.30
2022-12-01T21:58:25.494Z,86.60
2022-12-01T22:03:39.271Z,82.40
2022-12-01T22:06:35.300Z,78.47
2022-12-01T22:09:15.358Z,78.07
2022-12-01T22:11:52.805Z,79.65
2022-12-01T22:14:30.409Z,79.68
2022-12-01T22:17:17.410Z,79.07
2022-12-01T22:19:56.883Z,74.55
2022-12-01T22:22:46.174Z,63.58
2022-12-01T22:25:25.547Z,71.15
2022-12-01T22:28:00.051Z,62.90
2022-12-01T22:30:34.362Z,69.30
2022-12-01T22:33:17.938Z,76.05
2022-12-01T22:35:53.702Z,72.32
2022-12-01T22:38:33.237Z,81.28
2022-12-01T22:41:11.997Z,75.30
2022-12-01T22:43:48.004Z,77.55
2022-12-01T22:46:27.460Z,81.53
2022-12-01T22:49:09.566Z,78.90
2022-12-01T22:51:46.166Z,89.07
2022-12-01T22:54:28.472Z,78.57
2022-12-01T22:57:06.979Z,79.57
2022-12-01T22:59:43.273Z,85.80
2022-12-01T23:02:22.114Z,78.07
2022-12-01T23:05:00.464Z,72.80
2022-12-01T23:07:35.750Z,83.38
2022-12-01T23:10:16.417Z,81.43
2022-12-01T23:12:51.587Z,65.93
2022-12-01T23:15:33.057Z,77.35
2022-12-01T23:18:14.683Z,72.45
2022-12-01T23:20:51.661Z,69.18
2022-12-01T23:23:29.128Z,61.80
2022-12-01T23:26:05.633Z,66.93
2022-12-01T23:28:41.272Z,76.47
2022-12-01T23:31:15.121Z,79.13
2022-12-01T23:33:49.111Z,79.75
2022-12-01T23:36:27.535Z,83.32
2022-12-01T23:39:06.009Z,77.38
2022-12-01T23:41:43.190Z,78.03
2022-12-01T23:44:21.656Z,65.57
2022-12-01T23:46:58.301Z,76.40
2022-12-01T23:49:34.808Z,76.38
2022-12-01T23:52:17.371Z,85.25
2022-12-01T23:54:51.252Z,80.30
2022-12-01T23:57:26.425Z,80.70
